Time;durP1;ratioP1;P1;durP2;ratioP2;P2;SDS_P1;SDS_P2;PMS_P1;PMS_P2;Temp;Humidity;BMP_temperature;BMP_pressure;BME280_temperature;BME280_humidity;BME280_pressure;Samples;Min_cycle;Max_cycle;Signal;HPM_P1;HPM_P2
2022/06/03 00:00:58;;;;;;;7.70;5.77;;;;;;;;;;5984612;29;20246;-72
2022/06/03 00:04:27;;;;;;;5.03;4.33;;;;;;;;;;6002910;29;20230;-72
2022/06/03 00:07:51;;;;;;;9.30;6.30;;;;;;;;;;6007285;29;20238;-72
2022/06/03 00:11:20;;;;;;;9.80;6.23;;;;;;;;;;6005220;29;20357;-72
2022/06/03 00:14:45;;;;;;;8.13;5.83;;;;;;;;;;5999456;29;20243;-72
2022/06/03 00:18:15;;;;;;;10.63;6.60;;;;;;;;;;6003818;29;20567;-72
2022/06/03 00:21:56;;;;;;;8.03;5.93;;;;;;;;;;5996335;29;20242;-72
2022/06/03 00:25:29;;;;;;;8.53;6.37;;;;;;;;;;5998344;29;20235;-72
2022/06/03 00:29:01;;;;;;;7.20;5.13;;;;;;;;;;6000880;29;20521;-72
2022/06/03 00:32:38;;;;;;;6.67;5.63;;;;;;;;;;5982172;29;20289;-72
2022/06/03 00:36:04;;;;;;;7.70;6.10;;;;;;;;;;5986444;29;20533;-72
2022/06/03 00:39:32;;;;;;;6.60;5.20;;;;;;;;;;6002975;29;20235;-72
2022/06/03 00:43:25;;;;;;;8.20;5.50;;;;;;;;;;6019397;29;20235;-72
2022/06/03 00:46:57;;;;;;;7.33;5.43;;;;;;;;;;5940465;29;20568;-72
2022/06/03 00:50:39;;;;;;;6.50;5.90;;;;;;;;;;5956933;29;20383;-72
2022/06/03 00:54:08;;;;;;;9.17;6.77;;;;;;;;;;6006637;29;21200;-72
2022/06/03 00:57:44;;;;;;;5.97;5.47;;;;;;;;;;6004711;29;20242;-72
2022/06/03 01:01:08;;;;;;;6.53;5.93;;;;;;;;;;5996389;29;20665;-72
2022/06/03 01:04:35;;;;;;;9.27;6.40;;;;;;;;;;6006617;29;20265;-72
2022/06/03 01:08:01;;;;;;;8.77;5.27;;;;;;;;;;6001488;29;20234;-71
2022/06/03 01:11:30;;;;;;;8.30;5.97;;;;;;;;;;6006247;29;20273;-72
2022/06/03 01:15:00;;;;;;;7.30;6.17;;;;;;;;;;6010806;29;20552;-72
2022/06/03 01:18:29;;;;;;;7.63;5.97;;;;;;;;;;5984789;29;20236;-71
2022/06/03 01:21:56;;;;;;;7.40;5.30;;;;;;;;;;6005360;29;20657;-72
2022/06/03 01:25:38;;;;;;;5.70;5.10;;;;;;;;;;6005041;29;20235;-72
2022/06/03 01:29:22;;;;;;;8.43;6.13;;;;;;;;;;5997627;29;20238;-72
2022/06/03 01:33:02;;;;;;;9.83;7.03;;;;;;;;;;5984027;29;20247;-73
2022/06/03 01:36:36;;;;;;;7.67;5.63;;;;;;;;;;6007772;29;20242;-72
2022/06/03 01:40:02;;;;;;;6.10;5.50;;;;;;;;;;6004572;29;20506;-71
2022/06/03 01:43:47;;;;;;;6.63;5.90;;;;;;;;;;5999927;29;20231;-71
2022/06/03 01:47:17;;;;;;;6.10;5.47;;;;;;;;;;5997675;29;20242;-72
2022/06/03 01:50:53;;;;;;;6.57;5.33;;;;;;;;;;6001448;29;20235;-72
2022/06/03 01:54:23;;;;;;;5.60;5.10;;;;;;;;;;6006178;29;20246;-72
2022/06/03 01:57:59;;;;;;;7.00;5.93;;;;;;;;;;6002843;29;20230;-72
2022/06/03 02:01:27;;;;;;;9.07;6.90;;;;;;;;;;6010202;29;20341;-72
2022/06/03 02:04:58;;;;;;;8.87;6.53;;;;;;;;;;6009487;29;20258;-72
2022/06/03 02:08:37;;;;;;;6.00;5.50;;;;;;;;;;6007197;29;20680;-71
2022/06/03 02:12:01;;;;;;;7.57;6.87;;;;;;;;;;6014215;29;20321;-71
2022/06/03 02:15:31;;;;;;;6.43;5.83;;;;;;;;;;6010440;29;20238;-72
2022/06/03 02:19:03;;;;;;;8.20;7.10;;;;;;;;;;6010620;29;20258;-72
2022/06/03 02:22:38;;;;;;;7.70;7.00;;;;;;;;;;6007427;29;20341;-71
2022/06/03 02:26:21;;;;;;;8.43;6.57;;;;;;;;;;6013935;29;20234;-72
2022/06/03 02:33:40;;;;;;;9.50;6.30;;;;;;;;;;6008633;29;20250;-72
2022/06/03 02:37:18;;;;;;;7.33;6.50;;;;;;;;;;6007066;29;20901;-71
2022/06/03 02:40:53;;;;;;;8.53;6.97;;;;;;;;;;6008034;29;20941;-72
2022/06/03 02:44:25;;;;;;;7.73;6.93;;;;;;;;;;6009149;29;20242;-71
2022/06/03 02:47:57;;;;;;;7.90;7.13;;;;;;;;;;6008230;29;20238;-72
2022/06/03 02:51:20;;;;;;;8.10;6.40;;;;;;;;;;5986889;29;20601;-72
2022/06/03 02:54:56;;;;;;;10.20;5.83;;;;;;;;;;6010257;29;20250;-72
2022/06/03 02:58:35;;;;;;;8.77;6.67;;;;;;;;;;6008076;29;20334;-71
2022/06/03 03:02:23;;;;;;;7.60;6.83;;;;;;;;;;6007443;29;20265;-71
2022/06/03 03:05:51;;;;;;;9.50;7.30;;;;;;;;;;5976371;29;20239;-72
2022/06/03 03:09:24;;;;;;;22.97;20.70;;;;;;;;;;6007938;29;20242;-72
2022/06/03 03:13:10;;;;;;;14.63;13.13;;;;;;;;;;6009109;29;20238;-72
2022/06/03 03:16:36;;;;;;;9.77;8.83;;;;;;;;;;6008750;29;20259;-71
2022/06/03 03:20:12;;;;;;;8.37;7.53;;;;;;;;;;6004865;29;20620;-71
2022/06/03 03:23:55;;;;;;;15.67;12.53;;;;;;;;;;6005454;29;21133;-72
2022/06/03 03:27:21;;;;;;;9.77;8.77;;;;;;;;;;6014970;29;20226;-72
2022/06/03 03:30:49;;;;;;;9.33;7.33;;;;;;;;;;5976992;29;20235;-72
2022/06/03 03:34:30;;;;;;;8.37;7.50;;;;;;;;;;5982555;29;20250;-72
2022/06/03 03:38:10;;;;;;;8.70;7.80;;;;;;;;;;6006258;29;20231;-72
2022/06/03 03:41:45;;;;;;;9.77;6.37;;;;;;;;;;6005738;29;20334;-72
2022/06/03 03:45:24;;;;;;;9.13;6.90;;;;;;;;;;6008430;29;20796;-72
2022/06/03 03:48:57;;;;;;;9.60;7.33;;;;;;;;;;6009696;29;20234;-71
2022/06/03 03:52:35;;;;;;;8.60;7.57;;;;;;;;;;6009368;29;20233;-71
2022/06/03 03:56:22;;;;;;;12.77;9.43;;;;;;;;;;6007964;29;20246;-72
2022/06/03 03:59:58;;;;;;;13.00;9.47;;;;;;;;;;6004346;29;20239;-72
2022/06/03 04:03:42;;;;;;;14.97;10.27;;;;;;;;;;6003952;29;20235;-71
2022/06/03 04:07:17;;;;;;;11.37;9.47;;;;;;;;;;6008041;29;20242;-71
2022/06/03 04:10:56;;;;;;;11.07;9.00;;;;;;;;;;6011726;29;20238;-71
2022/06/03 04:14:33;;;;;;;14.57;11.23;;;;;;;;;;6002267;29;20238;-71
2022/06/03 04:18:16;;;;;;;14.53;11.90;;;;;;;;;;6004321;29;20250;-72
2022/06/03 04:21:59;;;;;;;17.43;10.73;;;;;;;;;;6005420;29;20246;-72
2022/06/03 04:25:49;;;;;;;16.93;11.57;;;;;;;;;;6005712;29;20258;-72
2022/06/03 04:29:35;;;;;;;15.73;11.63;;;;;;;;;;5987377;29;20241;-73
2022/06/03 04:33:12;;;;;;;14.63;12.30;;;;;;;;;;5999423;29;20239;-72
2022/06/03 04:36:57;;;;;;;18.17;11.77;;;;;;;;;;5993072;29;20735;-71
2022/06/03 04:40:36;;;;;;;12.20;10.40;;;;;;;;;;5978916;29;20614;-73
2022/06/03 04:44:18;;;;;;;15.17;11.90;;;;;;;;;;5993283;29;20243;-72
2022/06/03 04:48:09;;;;;;;20.33;15.70;;;;;;;;;;5987147;29;20238;-71
2022/06/03 04:51:49;;;;;;;15.07;12.07;;;;;;;;;;5922428;29;20656;-72
2022/06/03 04:55:25;;;;;;;17.57;12.77;;;;;;;;;;6003190;29;21247;-72
2022/06/03 04:59:20;;;;;;;21.33;13.00;;;;;;;;;;6011051;29;20405;-72
2022/06/03 05:03:02;;;;;;;14.13;12.37;;;;;;;;;;6004117;29;20254;-72
2022/06/03 05:06:35;;;;;;;13.87;12.53;;;;;;;;;;6007212;29;20266;-73
2022/06/03 05:10:10;;;;;;;15.73;12.37;;;;;;;;;;5994635;29;22016;-72
2022/06/03 05:13:49;;;;;;;17.27;11.83;;;;;;;;;;6000333;29;20235;-73
2022/06/03 05:17:21;;;;;;;17.90;12.53;;;;;;;;;;6005901;29;20231;-72
2022/06/03 05:20:49;;;;;;;17.73;11.77;;;;;;;;;;6007092;29;20328;-72
2022/06/03 05:24:20;;;;;;;15.70;13.03;;;;;;;;;;6005709;29;20600;-73
2022/06/03 05:28:08;;;;;;;18.80;12.40;;;;;;;;;;6003835;29;20244;-72
2022/06/03 05:31:46;;;;;;;15.23;10.47;;;;;;;;;;5992415;29;20337;-73
2022/06/03 05:35:22;;;;;;;23.27;12.20;;;;;;;;;;6003743;29;20234;-74
2022/06/03 05:39:09;;;;;;;13.47;11.30;;;;;;;;;;5981930;29;20230;-73
2022/06/03 05:42:47;;;;;;;14.90;12.20;;;;;;;;;;5998659;29;20247;-76
2022/06/03 05:46:11;;;;;;;12.93;10.50;;;;;;;;;;6001008;29;20234;-76
2022/06/03 05:49:36;;;;;;;13.30;10.20;;;;;;;;;;6009895;29;20254;-73
2022/06/03 05:53:07;;;;;;;14.40;9.87;;;;;;;;;;5998898;29;20649;-75
2022/06/03 05:56:33;;;;;;;12.23;9.13;;;;;;;;;;6013586;29;20238;-78
2022/06/03 06:00:01;;;;;;;12.70;10.17;;;;;;;;;;5983573;29;20239;-73
2022/06/03 06:03:35;;;;;;;9.73;8.73;;;;;;;;;;6006290;29;20239;-75
2022/06/03 06:07:01;;;;;;;11.27;9.10;;;;;;;;;;6005870;29;20561;-75
2022/06/03 06:10:32;;;;;;;13.33;9.03;;;;;;;;;;5999341;29;21133;-73
2022/06/03 06:14:03;;;;;;;9.67;8.03;;;;;;;;;;6005354;29;20239;-73
2022/06/03 06:17:36;;;;;;;9.73;8.73;;;;;;;;;;6003007;29;21098;-75
2022/06/03 06:21:04;;;;;;;10.10;9.10;;;;;;;;;;6010318;29;20230;-76
2022/06/03 06:24:43;;;;;;;10.67;9.63;;;;;;;;;;6009060;29;20317;-73
2022/06/03 06:28:05;;;;;;;9.60;8.53;;;;;;;;;;6003576;29;20258;-74
2022/06/03 06:31:32;;;;;;;10.83;9.70;;;;;;;;;;6015348;29;20235;-75
2022/06/03 06:35:07;;;;;;;11.30;10.00;;;;;;;;;;6012861;29;20333;-78
2022/06/03 06:38:36;;;;;;;11.20;10.13;;;;;;;;;;6005894;29;20762;-75
2022/06/03 06:42:02;;;;;;;12.53;10.00;;;;;;;;;;6010969;29;20235;-77
2022/06/03 06:45:28;;;;;;;11.23;9.93;;;;;;;;;;6009513;29;20712;-74
2022/06/03 06:48:52;;;;;;;9.03;8.07;;;;;;;;;;6006258;29;20239;-70
2022/06/03 06:52:27;;;;;;;9.47;8.43;;;;;;;;;;6004400;29;20234;-75
2022/06/03 06:55:53;;;;;;;10.97;7.17;;;;;;;;;;6011118;29;20261;-66
2022/06/03 06:59:18;;;;;;;8.97;7.07;;;;;;;;;;6009289;29;20226;-68
2022/06/03 07:02:41;;;;;;;10.17;6.73;;;;;;;;;;6003464;29;20266;-78
2022/06/03 07:06:05;;;;;;;7.20;6.50;;;;;;;;;;6010539;29;20235;-76
2022/06/03 07:09:30;;;;;;;8.70;7.20;;;;;;;;;;6006984;29;20238;-79
2022/06/03 07:12:58;;;;;;;7.50;5.97;;;;;;;;;;6016124;29;20243;-76
2022/06/03 07:20:06;;;;;;;6.97;6.00;;;;;;;;;;6009948;29;20796;-72
2022/06/03 07:23:32;;;;;;;7.87;6.93;;;;;;;;;;6015129;29;20329;-74
2022/06/03 07:26:56;;;;;;;7.60;6.70;;;;;;;;;;6006365;29;20322;-74
2022/06/03 07:30:20;;;;;;;6.40;5.77;;;;;;;;;;5998967;29;20238;-78
2022/06/03 07:33:46;;;;;;;6.13;5.63;;;;;;;;;;6006204;29;20251;-74
2022/06/03 07:37:09;;;;;;;6.73;5.50;;;;;;;;;;6007759;29;20333;-77
2022/06/03 07:40:33;;;;;;;7.83;6.10;;;;;;;;;;6020708;29;20500;-79
2022/06/03 07:43:56;;;;;;;8.33;5.70;;;;;;;;;;6013144;29;20534;-76
2022/06/03 07:47:18;;;;;;;8.57;7.33;;;;;;;;;;6010348;29;20230;-83
2022/06/03 07:50:43;;;;;;;5.53;4.90;;;;;;;;;;6014370;29;20242;-79
2022/06/03 07:54:05;;;;;;;7.17;6.47;;;;;;;;;;5999732;29;20688;-74
2022/06/03 07:57:27;;;;;;;9.60;6.20;;;;;;;;;;5997470;29;20293;-73
2022/06/03 08:00:48;;;;;;;8.17;5.77;;;;;;;;;;5989949;29;20240;-77
2022/06/03 08:04:13;;;;;;;10.00;6.53;;;;;;;;;;5972974;29;20634;-74
2022/06/03 08:11:21;;;;;;;9.77;5.57;;;;;;;;;;6005005;29;20582;-75
2022/06/03 08:14:42;;;;;;;7.90;4.77;;;;;;;;;;6004686;29;20239;-76
2022/06/03 08:18:05;;;;;;;6.67;5.50;;;;;;;;;;5991640;29;20235;-81
2022/06/03 08:21:29;;;;;;;9.53;5.90;;;;;;;;;;6012880;29;20250;-74
2022/06/03 08:24:52;;;;;;;9.13;6.23;;;;;;;;;;6010250;29;20575;-79
2022/06/03 08:28:14;;;;;;;9.00;7.43;;;;;;;;;;6011866;29;20242;-72
2022/06/03 08:31:35;;;;;;;5.70;5.03;;;;;;;;;;5999626;29;20337;-70
2022/06/03 08:34:58;;;;;;;5.10;3.83;;;;;;;;;;5998703;29;20243;-70
2022/06/03 08:38:24;;;;;;;7.13;4.10;;;;;;;;;;6007252;29;20242;-71
2022/06/03 08:41:52;;;;;;;4.17;3.07;;;;;;;;;;6010263;29;20230;-71
2022/06/03 08:45:16;;;;;;;6.00;2.57;;;;;;;;;;6007172;29;20250;-76
2022/06/03 08:48:40;;;;;;;2.50;1.73;;;;;;;;;;6006293;29;20245;-77
2022/06/03 08:52:02;;;;;;;4.27;2.60;;;;;;;;;;6007817;29;20729;-69
2022/06/03 08:55:34;;;;;;;4.33;2.13;;;;;;;;;;6005214;29;20239;-76
2022/06/03 08:59:01;;;;;;;2.90;2.30;;;;;;;;;;5998828;29;21635;-74
2022/06/03 09:02:24;;;;;;;6.00;2.20;;;;;;;;;;6009273;29;20246;-75
2022/06/03 09:05:47;;;;;;;4.00;1.77;;;;;;;;;;6010949;29;20266;-73
2022/06/03 09:09:11;;;;;;;3.93;2.13;;;;;;;;;;6013886;29;20234;-72
2022/06/03 09:12:42;;;;;;;3.73;2.50;;;;;;;;;;6014194;29;20320;-73
2022/06/03 09:16:04;;;;;;;3.85;2.78;;;;;;;;;;6015484;29;20601;-75
2022/06/03 09:19:26;;;;;;;7.47;3.20;;;;;;;;;;6008515;29;20231;-75
2022/06/03 09:22:48;;;;;;;2.73;2.43;;;;;;;;;;6008929;29;20230;-73
2022/06/03 09:26:13;;;;;;;4.27;2.90;;;;;;;;;;6012775;29;20231;-71
2022/06/03 09:29:35;;;;;;;5.83;3.10;;;;;;;;;;6006726;29;20245;-75
2022/06/03 09:32:57;;;;;;;2.77;2.37;;;;;;;;;;5996503;29;20594;-72
2022/06/03 09:36:18;;;;;;;4.35;2.47;;;;;;;;;;5991003;29;20265;-74
2022/06/03 09:39:39;;;;;;;3.03;2.55;;;;;;;;;;6003187;29;20227;-75
2022/06/03 09:43:02;;;;;;;2.72;2.03;;;;;;;;;;6011748;29;20239;-74
2022/06/03 09:46:26;;;;;;;3.90;2.22;;;;;;;;;;6008704;29;20984;-73
2022/06/03 09:49:48;;;;;;;3.95;2.38;;;;;;;;;;6010362;29;20238;-79
2022/06/03 09:53:10;;;;;;;5.43;2.70;;;;;;;;;;6001916;29;20231;-75
2022/06/03 09:56:32;;;;;;;2.58;2.03;;;;;;;;;;6007935;29;20242;-73
2022/06/03 09:59:55;;;;;;;2.58;2.17;;;;;;;;;;6013026;29;21405;-73
2022/06/03 10:03:18;;;;;;;4.15;1.95;;;;;;;;;;6002547;29;20234;-72
2022/06/03 10:06:46;;;;;;;1.48;1.38;;;;;;;;;;6009451;29;20230;-72
2022/06/03 10:13:45;;;;;;;3.30;1.77;;;;;;;;;;6008882;29;20246;-71
2022/06/03 10:17:07;;;;;;;2.25;1.80;;;;;;;;;;6011038;29;20295;-71
2022/06/03 10:20:28;;;;;;;2.65;2.00;;;;;;;;;;6007479;29;20235;-73
2022/06/03 10:23:55;;;;;;;2.28;2.08;;;;;;;;;;6013884;29;20275;-73
2022/06/03 10:27:18;;;;;;;3.47;2.13;;;;;;;;;;6008129;29;20493;-73
2022/06/03 10:30:41;;;;;;;2.65;1.60;;;;;;;;;;6013281;29;20242;-71
2022/06/03 10:34:02;;;;;;;3.15;1.83;;;;;;;;;;6001188;29;20325;-71
2022/06/03 10:37:25;;;;;;;2.58;1.67;;;;;;;;;;6010227;29;20318;-73
2022/06/03 10:40:47;;;;;;;2.58;1.73;;;;;;;;;;5986817;29;20567;-71
2022/06/03 10:44:13;;;;;;;2.38;1.30;;;;;;;;;;6011131;29;20584;-72
2022/06/03 10:47:35;;;;;;;2.20;1.30;;;;;;;;;;6001419;29;20248;-73
2022/06/03 10:51:12;;;;;;;1.63;1.30;;;;;;;;;;6006555;29;20520;-74
2022/06/03 11:01:53;;;;;;;1.38;1.27;;;;;;;;;;5990022;29;20271;-71
2022/06/03 11:05:15;;;;;;;3.38;1.50;;;;;;;;;;6010720;29;20583;-71
2022/06/03 11:08:50;;;;;;;2.08;1.45;;;;;;;;;;6004905;29;20226;-71
2022/06/03 11:12:12;;;;;;;1.48;1.30;;;;;;;;;;6006975;29;20274;-71
2022/06/03 11:15:36;;;;;;;3.53;1.35;;;;;;;;;;6008290;29;20264;-72
2022/06/03 11:18:57;;;;;;;1.73;1.17;;;;;;;;;;6011776;29;20266;-71
2022/06/03 11:22:25;;;;;;;1.63;1.20;;;;;;;;;;6005609;29;21868;-72
2022/06/03 11:25:47;;;;;;;1.67;1.15;;;;;;;;;;6010548;29;20231;-73
2022/06/03 11:29:12;;;;;;;2.47;1.20;;;;;;;;;;6006280;29;20753;-71
2022/06/03 11:32:34;;;;;;;1.77;1.52;;;;;;;;;;6005830;29;20230;-75
2022/06/03 11:35:57;;;;;;;1.42;1.25;;;;;;;;;;6009478;29;21788;-72
2022/06/03 11:39:23;;;;;;;2.78;1.50;;;;;;;;;;5999154;29;20235;-72
2022/06/03 11:42:46;;;;;;;3.20;1.65;;;;;;;;;;6007013;29;20231;-73
2022/06/03 11:46:12;;;;;;;2.33;1.30;;;;;;;;;;5999068;29;20231;-72
2022/06/03 11:49:33;;;;;;;2.88;1.38;;;;;;;;;;6000279;29;20614;-74
2022/06/03 11:53:02;;;;;;;1.92;1.40;;;;;;;;;;6310689;27;21180;-70
2022/06/03 11:56:25;;;;;;;1.52;1.10;;;;;;;;;;6321357;27;20241;-75
2022/06/03 11:59:50;;;;;;;2.70;1.20;;;;;;;;;;6314125;28;20222;-74
2022/06/03 12:03:20;;;;;;;7.47;6.80;;;;;;;;;;6308547;28;20257;-73
2022/06/03 12:06:43;;;;;;;4.45;4.15;;;;;;;;;;6318284;28;20230;-74
2022/06/03 12:10:10;;;;;;;1.75;1.60;;;;;;;;;;6343967;27;20234;-76
2022/06/03 12:13:32;;;;;;;1.23;1.10;;;;;;;;;;6341431;27;20243;-74
2022/06/03 12:16:54;;;;;;;1.92;1.13;;;;;;;;;;6337576;27;20630;-76
2022/06/03 12:20:33;;;;;;;2.17;1.23;;;;;;;;;;6309609;27;20238;-77
2022/06/03 12:23:54;;;;;;;2.15;1.55;;;;;;;;;;6323842;28;20237;-77
2022/06/03 12:27:23;;;;;;;3.50;1.33;;;;;;;;;;6305905;28;20234;-76
2022/06/03 12:30:46;;;;;;;2.88;1.80;;;;;;;;;;6301186;28;20226;-77
2022/06/03 12:34:20;;;;;;;1.42;1.30;;;;;;;;;;6300797;28;20572;-73
2022/06/03 12:37:41;;;;;;;1.38;1.27;;;;;;;;;;6310418;28;20253;-76
2022/06/03 12:41:04;;;;;;;1.38;1.17;;;;;;;;;;6299094;28;20266;-81
2022/06/03 12:44:43;;;;;;;1.92;1.35;;;;;;;;;;6293975;28;20234;-78
2022/06/03 12:48:22;;;;;;;2.25;1.30;;;;;;;;;;6325682;27;20225;-75
2022/06/03 12:51:56;;;;;;;1.55;1.35;;;;;;;;;;6323125;27;20406;-77
2022/06/03 12:55:23;;;;;;;3.13;1.65;;;;;;;;;;6310040;28;20229;-76
2022/06/03 12:58:45;;;;;;;1.83;1.27;;;;;;;;;;6317200;28;20225;-78
2022/06/03 13:02:14;;;;;;;1.20;1.10;;;;;;;;;;6309313;28;20687;-79
2022/06/03 13:05:36;;;;;;;1.60;1.35;;;;;;;;;;6301494;28;20229;-73
2022/06/03 13:12:48;;;;;;;1.58;1.02;;;;;;;;;;6259466;28;20705;-72
2022/06/03 13:16:38;;;;;;;2.83;1.17;;;;;;;;;;6278615;28;20230;-74
2022/06/03 13:20:01;;;;;;;3.00;2.13;;;;;;;;;;6280876;28;20313;-73
2022/06/03 13:23:33;;;;;;;1.42;1.13;;;;;;;;;;6268707;28;20239;-73
2022/06/03 13:27:11;;;;;;;2.00;0.85;;;;;;;;;;6275458;28;20288;-73
2022/06/03 13:30:34;;;;;;;1.30;1.20;;;;;;;;;;6292263;28;20227;-73
2022/06/03 13:34:22;;;;;;;1.38;1.27;;;;;;;;;;6297407;28;20313;-74
2022/06/03 13:37:49;;;;;;;1.67;1.27;;;;;;;;;;6299661;28;20227;-74
2022/06/03 13:45:19;;;;;;;2.08;1.30;;;;;;;;;;6299072;28;20234;-73
2022/06/03 13:48:51;;;;;;;1.33;1.23;;;;;;;;;;6297017;28;20222;-73
2022/06/03 13:52:14;;;;;;;4.15;3.75;;;;;;;;;;6290797;28;20247;-74
2022/06/03 13:55:47;;;;;;;1.30;1.20;;;;;;;;;;6290346;28;20782;-75
2022/06/03 13:59:14;;;;;;;1.77;1.67;;;;;;;;;;6266656;28;20231;-73
2022/06/03 14:02:36;;;;;;;16.92;15.27;;;;;;;;;;6273615;28;20842;-74
2022/06/03 14:05:59;;;;;;;2.75;2.55;;;;;;;;;;6268564;28;20219;-71
2022/06/03 14:09:20;;;;;;;4.72;4.30;;;;;;;;;;6283977;28;20600;-72
2022/06/03 14:12:47;;;;;;;5.55;4.43;;;;;;;;;;6538781;22;20581;-73
2022/06/03 14:16:10;;;;;;;9.75;8.75;;;;;;;;;;6259191;28;20255;-72
2022/06/03 14:19:42;;;;;;;7.32;6.63;;;;;;;;;;6282829;28;20876;-73
2022/06/03 14:23:08;;;;;;;17.70;16.00;;;;;;;;;;6282470;28;20231;-73
2022/06/03 14:26:33;;;;;;;4.38;1.58;;;;;;;;;;6279864;28;20227;-72
2022/06/03 14:29:58;;;;;;;1.65;1.00;;;;;;;;;;6289381;28;20250;-72
2022/06/03 14:33:21;;;;;;;1.33;1.20;;;;;;;;;;6280457;28;20500;-72
2022/06/03 14:36:42;;;;;;;1.85;1.52;;;;;;;;;;6284442;28;20235;-72
2022/06/03 14:40:06;;;;;;;2.08;1.05;;;;;;;;;;6283804;28;20513;-73
2022/06/03 14:43:28;;;;;;;1.20;1.10;;;;;;;;;;6286968;28;20234;-73
2022/06/03 14:46:53;;;;;;;2.35;1.17;;;;;;;;;;6284162;28;20330;-73
2022/06/03 14:50:17;;;;;;;1.40;1.17;;;;;;;;;;6270135;28;20231;-73
2022/06/03 14:53:38;;;;;;;1.92;1.17;;;;;;;;;;6284042;28;20231;-73
2022/06/03 14:57:02;;;;;;;1.30;1.20;;;;;;;;;;6281198;28;20223;-72
2022/06/03 15:00:30;;;;;;;8.30;7.50;;;;;;;;;;6281442;28;20227;-72
2022/06/03 15:03:55;;;;;;;14.23;12.90;;;;;;;;;;6260552;28;20230;-73
2022/06/03 15:07:19;;;;;;;6.50;5.90;;;;;;;;;;6269461;28;20226;-74
2022/06/03 15:10:41;;;;;;;12.13;10.98;;;;;;;;;;6274505;28;20263;-74
2022/06/03 15:14:06;;;;;;;5.85;5.07;;;;;;;;;;6246031;28;20238;-74
2022/06/03 15:17:27;;;;;;;3.03;2.70;;;;;;;;;;6282025;28;20230;-74
2022/06/03 15:20:57;;;;;;;4.07;1.80;;;;;;;;;;6274208;28;20269;-73
2022/06/03 15:24:18;;;;;;;2.58;1.65;;;;;;;;;;6268122;28;20273;-74
2022/06/03 15:27:41;;;;;;;2.45;1.48;;;;;;;;;;6266535;28;20235;-74
2022/06/03 15:31:02;;;;;;;5.53;4.97;;;;;;;;;;6271306;28;20231;-74
2022/06/03 15:34:23;;;;;;;3.33;2.97;;;;;;;;;;6270932;28;20612;-75
2022/06/03 15:37:45;;;;;;;9.00;8.23;;;;;;;;;;6269457;28;20223;-74
2022/06/03 15:41:07;;;;;;;3.88;3.58;;;;;;;;;;6269500;28;20529;-74
2022/06/03 15:44:28;;;;;;;4.53;2.78;;;;;;;;;;6268890;28;20235;-74
2022/06/03 15:47:59;;;;;;;3.65;3.35;;;;;;;;;;6271583;28;20597;-74
2022/06/03 15:51:21;;;;;;;1.60;1.50;;;;;;;;;;6271404;28;20222;-74
2022/06/03 15:54:54;;;;;;;1.45;1.35;;;;;;;;;;6256523;28;20715;-72
2022/06/03 15:58:17;;;;;;;2.25;1.80;;;;;;;;;;6269864;28;20322;-74
2022/06/03 16:01:42;;;;;;;8.82;8.15;;;;;;;;;;6265048;28;20239;-74
2022/06/03 16:05:08;;;;;;;4.78;3.80;;;;;;;;;;6265625;28;20231;-74
2022/06/03 16:08:34;;;;;;;27.65;24.98;;;;;;;;;;6266495;28;20238;-74
2022/06/03 16:12:03;;;;;;;21.20;19.00;;;;;;;;;;6278502;28;20231;-74
2022/06/03 16:15:31;;;;;;;15.07;13.70;;;;;;;;;;6278450;28;20545;-73
2022/06/03 16:18:59;;;;;;;2.78;1.90;;;;;;;;;;6278737;28;22418;-75
2022/06/03 16:22:29;;;;;;;14.20;12.82;;;;;;;;;;6281213;28;20226;-74
2022/06/03 16:25:56;;;;;;;1.70;1.60;;;;;;;;;;6281633;28;20322;-74
2022/06/03 16:29:36;;;;;;;3.67;2.70;;;;;;;;;;6277243;28;20314;-72
2022/06/03 16:32:59;;;;;;;1.88;1.77;;;;;;;;;;6280090;28;20540;-72
2022/06/03 16:36:22;;;;;;;1.10;1.10;;;;;;;;;;6281786;28;20231;-72
2022/06/03 16:39:45;;;;;;;1.63;1.52;;;;;;;;;;6284438;28;20234;-73
2022/06/03 16:43:12;;;;;;;1.63;1.50;;;;;;;;;;6280465;28;20512;-73
2022/06/03 16:46:41;;;;;;;2.72;2.00;;;;;;;;;;6283670;28;20318;-73
2022/06/03 16:50:05;;;;;;;9.13;8.23;;;;;;;;;;6287167;28;20231;-73
2022/06/03 16:53:28;;;;;;;6.35;5.75;;;;;;;;;;6281999;28;20235;-74
2022/06/03 16:56:56;;;;;;;2.95;2.58;;;;;;;;;;6285163;28;20235;-72
2022/06/03 17:00:18;;;;;;;9.38;8.35;;;;;;;;;;6279202;28;20226;-74
2022/06/03 17:03:42;;;;;;;3.97;3.58;;;;;;;;;;6278971;28;20227;-73
2022/06/03 17:07:02;;;;;;;8.80;7.97;;;;;;;;;;6286705;28;20227;-74
2022/06/03 17:10:25;;;;;;;6.32;5.82;;;;;;;;;;6279187;28;20246;-74
2022/06/03 17:13:47;;;;;;;1.83;1.00;;;;;;;;;;6286536;28;20550;-73
2022/06/03 17:17:09;;;;;;;1.55;1.45;;;;;;;;;;6277426;28;20512;-73
2022/06/03 17:20:38;;;;;;;5.43;5.03;;;;;;;;;;6284136;28;20798;-73
2022/06/03 17:24:08;;;;;;;6.18;4.82;;;;;;;;;;6284084;28;20234;-74
2022/06/03 17:27:34;;;;;;;10.80;9.70;;;;;;;;;;6284851;28;20462;-73
2022/06/03 17:30:56;;;;;;;7.60;6.78;;;;;;;;;;6280376;28;20218;-73
2022/06/03 17:34:29;;;;;;;3.70;3.33;;;;;;;;;;6285171;28;20506;-72
2022/06/03 17:37:56;;;;;;;8.60;7.35;;;;;;;;;;6285947;28;20227;-73
2022/06/03 17:41:21;;;;;;;11.00;10.00;;;;;;;;;;6286703;28;20242;-74
2022/06/03 17:44:49;;;;;;;13.13;11.90;;;;;;;;;;6283647;28;20493;-73
2022/06/03 17:48:14;;;;;;;4.20;3.83;;;;;;;;;;6277799;28;20218;-73
2022/06/03 17:55:29;;;;;;;7.82;7.13;;;;;;;;;;6283966;28;20231;-72
2022/06/03 17:59:02;;;;;;;4.78;4.35;;;;;;;;;;6281206;28;20226;-74
2022/06/03 18:02:57;;;;;;;3.38;3.08;;;;;;;;;;6280496;28;20227;-73
2022/06/03 18:06:21;;;;;;;2.03;1.83;;;;;;;;;;6283997;28;20239;-73
2022/06/03 18:09:45;;;;;;;3.22;2.85;;;;;;;;;;6280002;28;20235;-74
2022/06/03 18:13:08;;;;;;;2.55;2.35;;;;;;;;;;6284401;28;20262;-74
2022/06/03 18:16:31;;;;;;;3.55;1.88;;;;;;;;;;6284060;28;20611;-74
2022/06/03 18:19:51;;;;;;;2.03;1.92;;;;;;;;;;6283864;28;20223;-74
2022/06/03 18:23:25;;;;;;;1.30;1.20;;;;;;;;;;6283454;28;20263;-74
2022/06/03 18:26:56;;;;;;;2.70;1.77;;;;;;;;;;6283840;28;20215;-73
2022/06/03 18:30:23;;;;;;;2.10;1.63;;;;;;;;;;6284754;28;20631;-73
2022/06/03 18:33:48;;;;;;;2.58;2.25;;;;;;;;;;6282913;28;20231;-75
2022/06/03 18:37:16;;;;;;;2.83;2.17;;;;;;;;;;6283064;28;20223;-74
2022/06/03 18:40:38;;;;;;;4.95;4.38;;;;;;;;;;6282414;28;20628;-74
2022/06/03 18:44:08;;;;;;;5.47;4.97;;;;;;;;;;6283975;28;20635;-74
2022/06/03 18:47:40;;;;;;;3.85;3.47;;;;;;;;;;6280048;28;20643;-74
2022/06/03 18:51:04;;;;;;;12.13;10.98;;;;;;;;;;6281109;28;20223;-74
2022/06/03 18:54:34;;;;;;;5.85;5.35;;;;;;;;;;6283020;28;20231;-75
2022/06/03 18:58:04;;;;;;;2.03;1.92;;;;;;;;;;6277935;28;20230;-74
2022/06/03 19:01:33;;;;;;;1.95;1.67;;;;;;;;;;6276681;28;20238;-74
2022/06/03 19:05:03;;;;;;;2.85;2.15;;;;;;;;;;6274351;28;20227;-73
2022/06/03 19:08:41;;;;;;;1.65;1.55;;;;;;;;;;6268243;28;20242;-74
2022/06/03 19:12:13;;;;;;;2.47;2.28;;;;;;;;;;6271776;28;20227;-73
2022/06/03 19:15:39;;;;;;;2.15;1.92;;;;;;;;;;6279628;28;20302;-73
2022/06/03 19:19:07;;;;;;;2.42;2.22;;;;;;;;;;6273160;28;20227;-73
2022/06/03 19:22:35;;;;;;;2.83;2.17;;;;;;;;;;6271511;28;20223;-73
2022/06/03 19:25:56;;;;;;;2.63;1.70;;;;;;;;;;6278483;28;20713;-74
2022/06/03 19:29:26;;;;;;;4.70;3.03;;;;;;;;;;6276453;28;20223;-72
2022/06/03 19:32:53;;;;;;;5.78;5.28;;;;;;;;;;6273066;28;20226;-73
2022/06/03 19:36:19;;;;;;;3.25;2.90;;;;;;;;;;6279290;28;20489;-74
2022/06/03 19:40:01;;;;;;;16.75;15.05;;;;;;;;;;6275779;28;20259;-73
2022/06/03 19:43:39;;;;;;;6.43;5.60;;;;;;;;;;6255882;28;20326;-74
2022/06/03 19:47:11;;;;;;;4.57;4.18;;;;;;;;;;6277462;28;20252;-74
2022/06/03 19:54:19;;;;;;;6.03;4.18;;;;;;;;;;6273021;28;21177;-74
2022/06/03 19:57:41;;;;;;;4.22;3.20;;;;;;;;;;6278438;28;20226;-74
2022/06/03 20:01:02;;;;;;;3.90;2.63;;;;;;;;;;6272099;28;20353;-73
2022/06/03 20:04:26;;;;;;;3.75;2.78;;;;;;;;;;6275963;28;20307;-74
2022/06/03 20:07:53;;;;;;;4.30;3.85;;;;;;;;;;6277397;28;20227;-73
2022/06/03 20:14:55;;;;;;;5.28;4.15;;;;;;;;;;6283635;28;20230;-74
2022/06/03 20:18:21;;;;;;;3.13;2.92;;;;;;;;;;6276851;28;20603;-74
2022/06/03 20:21:45;;;;;;;4.45;3.85;;;;;;;;;;6290503;28;20235;-72
2022/06/03 20:25:08;;;;;;;4.85;3.70;;;;;;;;;;6275680;28;20894;-73
2022/06/03 20:28:32;;;;;;;4.45;4.05;;;;;;;;;;6279723;28;20235;-73
2022/06/03 20:31:57;;;;;;;4.32;3.92;;;;;;;;;;6286795;28;20219;-73
2022/06/03 20:35:22;;;;;;;7.03;4.72;;;;;;;;;;6283550;28;20620;-74
2022/06/03 20:38:53;;;;;;;4.15;3.75;;;;;;;;;;6279721;28;20284;-73
2022/06/03 20:42:24;;;;;;;4.53;3.65;;;;;;;;;;6286748;28;20223;-74
2022/06/03 20:45:48;;;;;;;4.50;3.38;;;;;;;;;;6273816;28;20231;-73
2022/06/03 20:49:14;;;;;;;4.00;3.60;;;;;;;;;;6284305;28;20295;-73
2022/06/03 20:52:37;;;;;;;4.30;3.65;;;;;;;;;;6281848;28;20230;-73
2022/06/03 20:56:06;;;;;;;4.15;2.95;;;;;;;;;;6279487;28;20239;-74
2022/06/03 20:59:28;;;;;;;5.53;4.07;;;;;;;;;;6282032;28;20230;-74
2022/06/03 21:02:49;;;;;;;3.15;2.95;;;;;;;;;;6283044;28;20586;-71
2022/06/03 21:13:27;;;;;;;7.07;4.15;;;;;;;;;;6285141;28;20262;-73
2022/06/03 21:16:48;;;;;;;4.07;3.38;;;;;;;;;;6286877;28;20235;-74
2022/06/03 21:20:09;;;;;;;3.80;3.50;;;;;;;;;;6284535;28;21160;-73
2022/06/03 21:23:35;;;;;;;4.30;3.90;;;;;;;;;;6285719;28;20235;-71
2022/06/03 21:26:55;;;;;;;7.00;4.72;;;;;;;;;;6286514;28;20314;-74
2022/06/03 21:30:17;;;;;;;5.53;3.90;;;;;;;;;;6280277;28;20357;-74